Time;durP1;ratioP1;P1;durP2;ratioP2;P2;SDS_P1;SDS_P2;PMS_P1;PMS_P2;Temp;Humidity;BMP_temperature;BMP_pressure;BME280_temperature;BME280_humidity;BME280_pressure;Samples;Min_cycle;Max_cycle;Signal;HPM_P1;HPM_P2
2023/03/25 00:02:00;;;;;;;7.63;1.35;;;10.30;99.90;;;;;;5049192;28;20063;-82
2023/03/25 00:04:26;;;;;;;9.88;1.98;;;10.30;99.90;;;;;;5043677;28;20379;-83
2023/03/25 00:06:55;;;;;;;9.95;1.25;;;10.20;99.90;;;;;;5048954;28;20037;-82
2023/03/25 00:09:21;;;;;;;8.40;1.20;;;10.30;99.90;;;;;;5045161;28;20040;-82
2023/03/25 00:11:50;;;;;;;8.68;1.75;;;10.30;99.90;;;;;;5047402;28;20041;-82
2023/03/25 00:14:16;;;;;;;8.80;1.50;;;10.20;99.90;;;;;;5046049;28;20053;-82
2023/03/25 00:16:47;;;;;;;9.55;1.40;;;10.30;99.90;;;;;;5050145;28;20208;-83
2023/03/25 00:19:14;;;;;;;13.55;1.60;;;10.30;99.90;;;;;;5046505;28;20067;-82
2023/03/25 00:21:43;;;;;;;12.27;2.10;;;10.30;99.90;;;;;;5048996;28;20048;-83
2023/03/25 00:24:11;;;;;;;11.20;2.25;;;10.30;99.90;;;;;;5046749;28;20049;-82
2023/03/25 00:26:41;;;;;;;14.25;2.00;;;10.30;99.90;;;;;;5047981;28;20080;-82
2023/03/25 00:29:08;;;;;;;10.27;1.42;;;10.30;99.90;;;;;;5056767;28;20514;-82
2023/03/25 00:31:34;;;;;;;9.90;1.27;;;10.30;99.90;;;;;;5047704;28;20065;-82
2023/03/25 00:34:00;;;;;;;12.90;1.63;;;10.30;99.90;;;;;;5040304;28;20087;-82
2023/03/25 00:36:25;;;;;;;10.40;1.40;;;10.20;99.90;;;;;;5047695;28;20586;-82
2023/03/25 00:38:51;;;;;;;8.15;1.60;;;10.20;99.90;;;;;;5061399;28;20036;-82
2023/03/25 00:41:24;;;;;;;11.15;1.70;;;10.20;99.90;;;;;;5048476;28;20045;-83
2023/03/25 00:43:55;;;;;;;8.65;1.42;;;10.20;99.90;;;;;;5039305;28;20044;-82
2023/03/25 00:46:22;;;;;;;12.25;2.03;;;10.20;99.90;;;;;;5046109;28;20032;-82
2023/03/25 00:48:49;;;;;;;11.25;1.88;;;10.20;99.90;;;;;;5027653;28;20098;-82
2023/03/25 00:51:18;;;;;;;11.75;1.67;;;10.30;99.90;;;;;;5048393;28;20037;-82
2023/03/25 00:53:44;;;;;;;11.77;2.00;;;10.20;99.90;;;;;;5044285;28;20052;-83
2023/03/25 00:56:13;;;;;;;10.55;1.65;;;10.20;99.90;;;;;;5023384;28;20091;-82
2023/03/25 00:58:39;;;;;;;12.43;2.00;;;10.20;99.90;;;;;;5046341;28;20048;-83
2023/03/25 01:01:11;;;;;;;11.70;1.63;;;10.10;99.90;;;;;;5063537;28;20045;-82
2023/03/25 01:03:38;;;;;;;10.52;2.22;;;10.00;99.90;;;;;;5042501;28;20466;-83
2023/03/25 01:06:14;;;;;;;6.97;1.60;;;9.90;99.90;;;;;;5048007;28;20040;-82
2023/03/25 01:08:41;;;;;;;11.30;1.80;;;9.80;99.90;;;;;;5045963;28;20060;-83
2023/03/25 01:11:18;;;;;;;13.45;1.77;;;9.80;99.90;;;;;;5034251;28;20168;-83
2023/03/25 01:13:44;;;;;;;11.15;2.13;;;9.90;99.90;;;;;;5047951;28;20049;-82
2023/03/25 01:16:10;;;;;;;11.07;1.90;;;9.70;99.90;;;;;;5046822;28;20633;-82
2023/03/25 01:18:37;;;;;;;11.82;1.95;;;9.70;99.90;;;;;;5047492;28;20132;-83
2023/03/25 01:21:07;;;;;;;9.70;1.70;;;9.60;99.90;;;;;;5048098;28;20391;-83
2023/03/25 01:23:33;;;;;;;10.50;1.83;;;9.60;99.90;;;;;;5046448;28;20037;-82
2023/03/25 01:26:00;;;;;;;10.25;2.15;;;9.50;99.90;;;;;;5045394;28;20530;-82
2023/03/25 01:28:27;;;;;;;10.98;2.38;;;9.50;99.90;;;;;;5046906;28;20479;-82
2023/03/25 01:31:00;;;;;;;11.90;1.80;;;9.50;99.90;;;;;;5048736;28;20051;-82
2023/03/25 01:33:26;;;;;;;18.98;3.30;;;9.50;99.90;;;;;;5048515;28;20049;-82
2023/03/25 01:35:52;;;;;;;8.98;1.95;;;9.50;99.90;;;;;;5045831;28;20052;-83
2023/03/25 01:38:18;;;;;;;12.05;2.65;;;9.40;99.90;;;;;;5047152;28;20043;-82
2023/03/25 01:40:45;;;;;;;9.52;2.00;;;9.40;99.90;;;;;;5044241;28;20061;-82
2023/03/25 01:43:14;;;;;;;14.85;2.15;;;9.40;99.90;;;;;;5043638;28;20037;-82
2023/03/25 01:45:40;;;;;;;10.48;2.97;;;9.40;99.90;;;;;;5049481;28;20045;-82
2023/03/25 01:48:14;;;;;;;10.25;2.50;;;9.40;99.90;;;;;;5047623;28;20403;-82
2023/03/25 01:50:43;;;;;;;15.57;2.83;;;9.40;99.90;;;;;;5058296;28;20471;-82
2023/03/25 01:53:10;;;;;;;12.70;2.58;;;9.30;99.90;;;;;;5043475;28;20108;-82
2023/03/25 01:55:37;;;;;;;10.93;2.20;;;9.40;99.90;;;;;;5046207;28;20537;-82
2023/03/25 01:58:16;;;;;;;17.00;2.30;;;9.30;99.90;;;;;;5048175;28;20045;-82
2023/03/25 02:00:44;;;;;;;12.27;2.13;;;9.30;99.90;;;;;;5042685;28;20476;-82
2023/03/25 02:03:11;;;;;;;13.15;2.83;;;9.30;99.90;;;;;;5047955;28;20064;-82
2023/03/25 02:06:08;;;;;;;10.65;2.10;;;9.30;99.90;;;;;;5030037;28;20032;-82
2023/03/25 02:08:38;;;;;;;13.77;2.35;;;9.30;99.90;;;;;;5046374;28;20048;-82
2023/03/25 02:11:09;;;;;;;15.07;2.58;;;9.30;99.90;;;;;;5044500;28;20041;-82
2023/03/25 02:13:38;;;;;;;11.40;1.95;;;9.20;99.90;;;;;;5052897;28;20485;-82
2023/03/25 02:16:32;;;;;;;12.23;2.20;;;9.20;99.90;;;;;;5041622;28;20059;-81
2023/03/25 02:19:12;;;;;;;16.77;2.95;;;9.20;99.90;;;;;;5049043;28;20048;-82
2023/03/25 02:21:53;;;;;;;16.85;2.42;;;9.20;99.90;;;;;;5039946;28;20033;-81
2023/03/25 02:25:00;;;;;;;15.43;2.83;;;9.20;99.90;;;;;;5047534;28;20556;-82
2023/03/25 02:27:40;;;;;;;22.55;3.95;;;9.20;99.90;;;;;;4970131;28;20573;-82
2023/03/25 02:30:31;;;;;;;13.85;2.30;;;9.30;99.90;;;;;;4964617;28;20055;-82
2023/03/25 02:33:21;;;;;;;14.90;2.50;;;9.30;99.90;;;;;;4969875;28;20054;-82
2023/03/25 02:35:51;;;;;;;13.75;1.77;;;9.30;99.90;;;;;;4952510;28;20057;-81
2023/03/25 02:38:25;;;;;;;20.48;2.83;;;9.30;99.90;;;;;;4985378;28;20126;-83
2023/03/25 02:41:04;;;;;;;19.48;2.88;;;9.30;99.90;;;;;;4983694;28;20042;-83
2023/03/25 02:43:50;;;;;;;15.98;2.60;;;9.30;99.90;;;;;;4985138;28;20516;-83
2023/03/25 02:46:18;;;;;;;14.10;2.28;;;9.30;99.90;;;;;;4980883;28;20050;-83
2023/03/25 02:49:04;;;;;;;14.52;3.03;;;9.40;99.90;;;;;;4985412;28;20081;-83
2023/03/25 02:51:34;;;;;;;13.48;2.55;;;9.30;99.90;;;;;;4969458;28;20413;-83
2023/03/25 02:54:06;;;;;;;14.13;3.05;;;9.20;99.90;;;;;;4968904;28;21547;-83
2023/03/25 02:56:32;;;;;;;15.57;3.67;;;9.20;99.90;;;;;;4982759;28;20549;-83
2023/03/25 02:58:59;;;;;;;14.80;3.97;;;9.30;99.90;;;;;;5024611;28;20125;-82
2023/03/25 03:01:25;;;;;;;16.85;3.60;;;9.20;99.90;;;;;;5027177;28;20048;-83
2023/03/25 03:03:55;;;;;;;16.77;3.05;;;9.20;99.90;;;;;;5024346;28;20029;-82
2023/03/25 03:06:23;;;;;;;22.10;3.42;;;9.20;99.90;;;;;;5026320;28;20119;-83
2023/03/25 03:08:48;;;;;;;19.65;3.13;;;9.20;99.90;;;;;;5026667;28;20101;-83
2023/03/25 03:11:23;;;;;;;22.35;3.08;;;9.20;99.90;;;;;;5031281;28;20480;-83
2023/03/25 03:13:49;;;;;;;16.50;3.33;;;9.20;99.90;;;;;;5022385;28;20042;-82
2023/03/25 03:16:44;;;;;;;15.60;2.67;;;9.20;99.90;;;;;;5024265;28;20092;-83
2023/03/25 03:19:24;;;;;;;14.13;2.80;;;9.10;99.90;;;;;;5029545;28;20373;-82
2023/03/25 03:22:00;;;;;;;16.02;3.03;;;9.20;99.90;;;;;;5027113;28;20057;-83
2023/03/25 03:24:28;;;;;;;15.63;3.10;;;9.20;99.90;;;;;;5031267;28;20142;-83
2023/03/25 03:27:32;;;;;;;18.90;3.38;;;9.20;99.90;;;;;;5028655;28;20124;-83
2023/03/25 03:30:31;;;;;;;18.77;2.97;;;9.20;99.90;;;;;;5028105;28;20121;-83
2023/03/25 03:33:20;;;;;;;14.48;2.72;;;9.10;99.90;;;;;;5002035;28;20049;-83
2023/03/25 03:35:57;;;;;;;12.70;2.60;;;9.10;99.90;;;;;;5028299;28;20660;-82
2023/03/25 03:38:26;;;;;;;11.82;2.88;;;9.10;99.90;;;;;;5030737;28;20484;-83
2023/03/25 03:40:57;;;;;;;18.30;3.38;;;9.00;99.90;;;;;;5029001;28;20048;-83
2023/03/25 03:43:26;;;;;;;18.38;3.33;;;9.00;99.90;;;;;;5028330;28;20484;-82
2023/03/25 03:45:57;;;;;;;19.52;3.38;;;9.00;99.90;;;;;;5027938;28;20044;-82
2023/03/25 03:48:44;;;;;;;13.45;2.72;;;9.30;99.90;;;;;;5031366;28;20053;-83
2023/03/25 03:51:33;;;;;;;18.75;2.70;;;9.00;99.90;;;;;;5045186;28;20480;-82
2023/03/25 03:54:00;;;;;;;18.25;4.13;;;9.00;99.90;;;;;;5063653;28;20407;-82
2023/03/25 03:57:07;;;;;;;14.90;2.90;;;9.10;99.90;;;;;;5048389;28;20596;-82
2023/03/25 03:59:45;;;;;;;15.93;3.00;;;9.00;99.90;;;;;;5037210;28;20071;-82
2023/03/25 04:02:40;;;;;;;17.02;3.35;;;9.00;99.90;;;;;;5046167;28;20053;-82
2023/03/25 04:05:10;;;;;;;20.65;3.67;;;9.00;99.90;;;;;;5043190;28;20495;-82
2023/03/25 04:07:55;;;;;;;18.95;3.42;;;9.00;99.90;;;;;;5050478;28;20037;-82
2023/03/25 04:10:28;;;;;;;20.58;3.10;;;9.00;99.90;;;;;;5041138;28;20515;-82
2023/03/25 04:12:57;;;;;;;15.27;2.55;;;9.00;99.90;;;;;;5049711;28;20037;-82
2023/03/25 04:15:25;;;;;;;17.95;3.60;;;9.00;99.90;;;;;;5048938;28;20087;-82
2023/03/25 04:17:51;;;;;;;14.82;2.78;;;9.00;99.90;;;;;;5049569;28;20406;-82
2023/03/25 04:20:25;;;;;;;21.33;3.63;;;9.00;99.90;;;;;;5048950;28;20579;-82
2023/03/25 04:22:51;;;;;;;17.47;3.37;;;9.00;99.90;;;;;;5049700;28;20086;-82
2023/03/25 04:25:20;;;;;;;15.25;3.58;;;9.00;99.90;;;;;;5049202;28;20067;-82
2023/03/25 04:27:47;;;;;;;12.07;2.35;;;9.00;99.90;;;;;;5049184;28;20049;-82
2023/03/25 04:30:17;;;;;;;15.38;3.28;;;9.30;99.90;;;;;;5049624;28;20095;-82
2023/03/25 04:32:47;;;;;;;21.52;3.92;;;9.00;99.90;;;;;;5049598;28;20440;-82
2023/03/25 04:35:18;;;;;;;12.07;3.22;;;9.00;99.90;;;;;;5043431;28;20033;-82
2023/03/25 04:37:45;;;;;;;13.50;3.00;;;9.00;99.90;;;;;;5046113;28;20045;-82
2023/03/25 04:40:17;;;;;;;14.73;2.90;;;9.00;99.90;;;;;;5047549;28;20045;-82
2023/03/25 04:42:45;;;;;;;12.55;2.97;;;9.00;99.90;;;;;;5049270;28;20522;-82
2023/03/25 04:45:15;;;;;;;14.68;2.78;;;9.00;99.90;;;;;;5042673;28;20124;-82
2023/03/25 04:47:43;;;;;;;16.00;3.67;;;9.00;99.90;;;;;;5046876;28;20701;-82
2023/03/25 04:50:30;;;;;;;16.77;3.38;;;9.00;99.90;;;;;;5046473;28;20050;-82
2023/03/25 04:52:57;;;;;;;11.35;2.72;;;8.90;99.90;;;;;;5047828;28;20039;-82
2023/03/25 04:55:24;;;;;;;15.25;3.75;;;8.90;99.90;;;;;;5046021;28;20174;-82
2023/03/25 04:57:51;;;;;;;12.85;2.85;;;8.90;99.90;;;;;;5047924;28;20040;-82
2023/03/25 05:00:22;;;;;;;16.77;3.47;;;9.00;99.90;;;;;;5045689;28;20052;-82
2023/03/25 05:02:55;;;;;;;16.40;3.60;;;8.90;99.90;;;;;;5046576;28;20041;-83
2023/03/25 05:05:24;;;;;;;8.40;2.80;;;8.90;99.90;;;;;;5044598;28;20112;-82
2023/03/25 05:07:52;;;;;;;16.10;3.95;;;8.90;99.90;;;;;;5051746;28;20037;-82
2023/03/25 05:10:20;;;;;;;15.65;4.50;;;8.90;99.90;;;;;;5029461;28;20045;-83
2023/03/25 05:12:46;;;;;;;14.32;3.97;;;8.90;99.90;;;;;;5044154;28;20120;-82
2023/03/25 05:15:13;;;;;;;20.17;3.65;;;8.80;99.90;;;;;;5044449;28;20048;-82
2023/03/25 05:17:38;;;;;;;17.65;3.63;;;8.80;99.90;;;;;;5047083;28;20814;-82
2023/03/25 05:20:05;;;;;;;18.30;3.50;;;8.90;99.90;;;;;;5031326;28;20082;-82
2023/03/25 05:22:32;;;;;;;14.07;4.00;;;8.80;99.90;;;;;;5048155;28;20509;-82
2023/03/25 05:24:57;;;;;;;17.15;4.22;;;9.40;99.90;;;;;;5048604;28;20461;-82
2023/03/25 05:27:23;;;;;;;13.88;3.42;;;8.80;99.90;;;;;;5027097;28;20124;-82
2023/03/25 05:29:49;;;;;;;13.32;4.35;;;8.80;99.90;;;;;;5047266;28;20080;-82
2023/03/25 05:32:19;;;;;;;14.90;3.83;;;8.80;99.90;;;;;;5040085;28;20823;-82
2023/03/25 05:34:47;;;;;;;15.65;3.25;;;8.80;99.90;;;;;;5047505;28;20116;-82
2023/03/25 05:37:13;;;;;;;12.32;3.28;;;8.80;99.90;;;;;;5041922;28;20083;-82
2023/03/25 05:39:39;;;;;;;16.30;2.90;;;8.80;99.90;;;;;;5048167;28;20048;-82
2023/03/25 05:42:05;;;;;;;19.70;4.03;;;8.80;99.90;;;;;;5045348;28;20044;-83
2023/03/25 05:44:31;;;;;;;14.65;3.22;;;8.80;99.90;;;;;;5048507;28;20037;-82
2023/03/25 05:47:00;;;;;;;16.33;3.33;;;8.80;99.90;;;;;;5044881;28;20047;-82
2023/03/25 05:49:27;;;;;;;14.02;3.17;;;8.80;99.90;;;;;;5045133;28;20140;-82
2023/03/25 05:51:54;;;;;;;20.38;4.15;;;8.90;99.90;;;;;;5047233;28;20450;-82
2023/03/25 05:54:27;;;;;;;15.93;3.38;;;8.80;99.90;;;;;;5047333;28;20033;-82
2023/03/25 05:56:53;;;;;;;17.98;3.03;;;8.80;99.90;;;;;;5050747;28;20431;-82
2023/03/25 05:59:19;;;;;;;16.63;3.50;;;8.80;99.90;;;;;;5048172;28;20099;-82
2023/03/25 06:01:44;;;;;;;19.15;3.17;;;8.80;99.90;;;;;;5044342;28;20087;-82
2023/03/25 06:04:15;;;;;;;19.10;3.28;;;8.80;99.90;;;;;;5039499;28;20033;-81
2023/03/25 06:06:41;;;;;;;18.00;3.67;;;8.90;99.90;;;;;;5047791;28;20484;-82
2023/03/25 06:09:07;;;;;;;15.85;3.08;;;8.90;99.90;;;;;;5046645;28;20041;-82
2023/03/25 06:11:39;;;;;;;17.75;3.53;;;8.90;99.90;;;;;;5047552;28;20029;-82
2023/03/25 06:14:05;;;;;;;17.33;3.17;;;9.00;99.90;;;;;;5046738;28;20041;-83
2023/03/25 06:16:32;;;;;;;18.60;3.15;;;8.90;99.90;;;;;;5048858;28;20039;-82
2023/03/25 06:19:01;;;;;;;17.88;3.65;;;8.90;99.90;;;;;;5045079;28;20037;-82
2023/03/25 06:21:28;;;;;;;16.40;3.17;;;8.90;99.90;;;;;;5043011;28;20045;-82
2023/03/25 06:23:56;;;;;;;20.35;3.95;;;8.90;99.90;;;;;;5045250;28;20112;-82
2023/03/25 06:26:23;;;;;;;18.55;4.03;;;8.90;99.90;;;;;;5048436;28;20032;-82
2023/03/25 06:28:51;;;;;;;18.55;3.40;;;9.00;99.90;;;;;;5047855;28;20041;-82
2023/03/25 06:31:32;;;;;;;18.30;3.17;;;9.00;99.90;;;;;;5048203;28;20106;-82
2023/03/25 06:34:07;;;;;;;17.85;3.28;;;9.00;99.90;;;;;;5068849;28;20033;-82
2023/03/25 06:36:33;;;;;;;16.67;3.22;;;9.00;99.90;;;;;;5050874;28;20036;-82
2023/03/25 06:38:59;;;;;;;18.45;3.67;;;9.00;99.90;;;;;;5053179;28;20091;-82
2023/03/25 06:41:25;;;;;;;17.98;3.65;;;9.00;99.90;;;;;;5032528;28;20037;-81
2023/03/25 06:43:53;;;;;;;16.92;3.25;;;9.00;99.90;;;;;;5047393;28;20099;-81
2023/03/25 06:46:19;;;;;;;20.30;3.30;;;9.00;99.90;;;;;;5050150;28;20033;-82
2023/03/25 06:48:44;;;;;;;17.45;3.28;;;9.00;99.90;;;;;;5048505;28;20072;-82
2023/03/25 06:51:10;;;;;;;21.70;3.03;;;9.10;99.90;;;;;;5050851;28;20103;-81
2023/03/25 06:53:36;;;;;;;16.08;3.50;;;8.90;99.90;;;;;;5054324;28;20119;-81
2023/03/25 06:56:02;;;;;;;20.73;2.70;;;8.90;99.90;;;;;;5051322;28;20033;-81
2023/03/25 06:58:33;;;;;;;23.90;3.67;;;9.00;99.90;;;;;;5049770;28;20033;-81
2023/03/25 07:01:02;;;;;;;20.95;3.55;;;9.00;99.90;;;;;;5046678;28;20126;-81
2023/03/25 07:03:29;;;;;;;18.15;3.17;;;9.00;99.90;;;;;;5051302;28;20071;-81
2023/03/25 07:05:55;;;;;;;18.33;2.63;;;9.00;99.90;;;;;;5065761;28;20044;-80
2023/03/25 07:08:20;;;;;;;20.70;3.75;;;8.90;99.90;;;;;;5049491;28;20045;-80
2023/03/25 07:10:46;;;;;;;23.50;3.38;;;8.90;99.90;;;;;;5046944;28;20076;-80
2023/03/25 07:13:12;;;;;;;15.00;2.75;;;9.00;99.90;;;;;;5052816;28;20098;-81
2023/03/25 07:15:41;;;;;;;24.42;3.13;;;8.90;99.90;;;;;;5048293;28;20044;-81
2023/03/25 07:18:18;;;;;;;19.75;3.30;;;9.00;99.90;;;;;;5051164;28;20455;-82
2023/03/25 07:20:44;;;;;;;17.65;2.53;;;9.00;99.90;;;;;;5053599;28;20107;-80
2023/03/25 07:23:09;;;;;;;18.20;2.78;;;9.00;99.90;;;;;;5030618;28;20033;-79
2023/03/25 07:25:35;;;;;;;19.10;3.08;;;9.10;99.90;;;;;;5049896;28;20044;-80
2023/03/25 07:28:02;;;;;;;21.83;3.25;;;9.10;99.90;;;;;;5049855;28;20491;-81
2023/03/25 07:30:30;;;;;;;11.93;2.30;;;9.20;99.90;;;;;;5050064;28;20037;-81
2023/03/25 07:32:56;;;;;;;19.95;3.63;;;9.20;99.90;;;;;;5052121;28;20049;-82
2023/03/25 07:35:22;;;;;;;17.70;2.85;;;9.20;99.90;;;;;;5051122;28;20082;-80
2023/03/25 07:37:50;;;;;;;16.08;2.60;;;9.30;99.90;;;;;;5049183;28;20037;-80
2023/03/25 07:40:20;;;;;;;21.02;2.60;;;9.30;99.90;;;;;;5047842;28;20036;-82
2023/03/25 07:42:46;;;;;;;13.82;2.50;;;9.20;99.90;;;;;;5044054;28;20459;-79
2023/03/25 07:45:15;;;;;;;14.07;2.70;;;9.30;99.90;;;;;;5052424;28;20098;-80
2023/03/25 07:47:41;;;;;;;17.95;2.88;;;9.30;99.90;;;;;;5049517;28;20037;-80
2023/03/25 07:50:07;;;;;;;18.40;3.28;;;9.20;99.90;;;;;;5049393;28;20080;-81
2023/03/25 07:52:39;;;;;;;21.08;3.35;;;9.20;99.90;;;;;;5051684;28;20091;-81
2023/03/25 07:55:05;;;;;;;16.00;2.78;;;9.20;99.90;;;;;;5050037;28;20033;-81
2023/03/25 07:57:31;;;;;;;17.50;2.70;;;9.10;99.90;;;;;;5050283;28;20120;-81
2023/03/25 07:59:57;;;;;;;14.52;2.33;;;9.00;99.90;;;;;;5064559;28;20207;-80
2023/03/25 08:02:23;;;;;;;16.80;2.97;;;9.00;99.90;;;;;;5049574;28;20048;-80
2023/03/25 08:04:53;;;;;;;14.00;2.42;;;9.00;99.90;;;;;;5048883;28;20037;-80
2023/03/25 08:07:20;;;;;;;17.20;2.35;;;9.00;99.90;;;;;;5050318;28;20076;-80
2023/03/25 08:09:46;;;;;;;21.95;2.58;;;9.00;99.90;;;;;;5048333;28;20056;-81
2023/03/25 08:12:15;;;;;;;14.75;2.28;;;9.00;99.90;;;;;;5047918;28;20036;-80
2023/03/25 08:14:41;;;;;;;19.13;3.53;;;9.00;99.90;;;;;;5048419;28;20029;-80
2023/03/25 08:17:13;;;;;;;16.98;3.40;;;9.00;99.90;;;;;;5050920;28;20379;-82
2023/03/25 08:19:39;;;;;;;13.00;2.67;;;8.90;99.90;;;;;;5051549;28;20365;-82
2023/03/25 08:22:07;;;;;;;18.85;2.53;;;8.90;99.90;;;;;;5048243;28;20037;-82
2023/03/25 08:24:33;;;;;;;13.73;2.25;;;8.90;99.90;;;;;;5049537;28;20130;-83
2023/03/25 08:27:02;;;;;;;11.70;2.08;;;8.90;99.90;;;;;;5050321;28;20494;-81
2023/03/25 08:29:28;;;;;;;9.75;1.80;;;8.80;99.90;;;;;;5042814;28;20046;-83
2023/03/25 08:32:01;;;;;;;9.82;1.75;;;8.90;99.90;;;;;;5049355;28;20033;-82
2023/03/25 08:34:27;;;;;;;12.30;2.13;;;8.80;99.90;;;;;;5032206;28;20041;-82
2023/03/25 08:36:59;;;;;;;18.42;2.55;;;8.70;99.90;;;;;;5051455;28;20522;-83
2023/03/25 08:39:28;;;;;;;9.65;2.20;;;8.70;99.90;;;;;;5049433;28;20045;-83
2023/03/25 08:42:00;;;;;;;18.23;2.13;;;8.40;99.90;;;;;;5051178;28;20056;-83
2023/03/25 08:44:25;;;;;;;18.85;2.97;;;8.80;99.90;;;;;;5052221;28;20086;-83
2023/03/25 08:46:53;;;;;;;12.85;3.13;;;8.80;99.90;;;;;;5049232;28;20104;-83
2023/03/25 08:49:19;;;;;;;9.45;1.77;;;8.90;99.90;;;;;;5063744;28;20487;-82
2023/03/25 08:51:45;;;;;;;16.83;3.33;;;9.10;99.90;;;;;;5048139;28;20051;-82
2023/03/25 08:54:11;;;;;;;21.45;3.08;;;9.20;99.90;;;;;;5046882;28;20041;-83
2023/03/25 08:56:36;;;;;;;17.88;2.95;;;9.20;99.90;;;;;;5050571;28;20037;-83
2023/03/25 08:59:02;;;;;;;18.48;2.50;;;9.20;99.90;;;;;;5050128;28;20040;-84
2023/03/25 09:01:28;;;;;;;19.27;2.97;;;9.20;99.90;;;;;;5045069;28;20414;-82
2023/03/25 09:03:56;;;;;;;14.88;3.08;;;9.30;99.90;;;;;;5048062;28;20049;-83
2023/03/25 09:06:24;;;;;;;16.45;3.30;;;9.30;99.90;;;;;;5050150;28;20083;-83
2023/03/25 09:08:54;;;;;;;18.90;3.22;;;9.30;99.90;;;;;;5047872;28;20053;-82
2023/03/25 09:11:27;;;;;;;16.25;3.05;;;9.30;99.90;;;;;;5050224;28;20045;-83
2023/03/25 09:13:52;;;;;;;16.55;2.75;;;9.40;99.90;;;;;;5060780;28;20053;-83
2023/03/25 09:16:19;;;;;;;17.38;3.05;;;9.50;99.90;;;;;;5032985;28;20037;-82
2023/03/25 09:18:50;;;;;;;15.25;3.20;;;9.50;99.90;;;;;;5040918;28;20045;-83
2023/03/25 09:21:19;;;;;;;19.98;3.03;;;9.60;99.90;;;;;;5046962;28;20084;-83
2023/03/25 09:23:45;;;;;;;23.75;3.63;;;9.60;99.90;;;;;;5064977;28;20079;-83
2023/03/25 09:26:16;;;;;;;17.80;3.42;;;9.70;99.90;;;;;;5045905;28;20434;-82
2023/03/25 09:28:42;;;;;;;17.23;2.53;;;9.70;99.90;;;;;;5045159;28;20058;-83
2023/03/25 09:31:10;;;;;;;20.88;2.90;;;9.80;99.90;;;;;;5047045;28;20162;-82
2023/03/25 09:33:42;;;;;;;16.88;2.70;;;9.90;99.90;;;;;;5048992;28;20049;-83
2023/03/25 09:36:11;;;;;;;13.93;2.20;;;10.00;99.90;;;;;;5049075;28;20029;-82
2023/03/25 09:38:37;;;;;;;13.82;2.30;;;10.00;99.90;;;;;;5047506;28;20045;-81
2023/03/25 09:41:25;;;;;;;11.13;1.92;;;10.20;99.90;;;;;;5050062;28;20037;-82
2023/03/25 09:44:03;;;;;;;15.45;3.13;;;10.30;99.90;;;;;;5049389;28;20123;-82
2023/03/25 09:46:32;;;;;;;21.52;3.03;;;10.40;99.90;;;;;;5050385;28;20040;-82
2023/03/25 09:49:01;;;;;;;13.18;1.88;;;10.60;99.90;;;;;;5049707;28;20048;-81
2023/03/25 09:51:34;;;;;;;14.98;2.92;;;10.40;99.90;;;;;;5050338;28;20048;-82
2023/03/25 09:54:26;;;;;;;9.20;2.28;;;11.00;99.90;;;;;;5047328;28;20033;-82
2023/03/25 09:56:58;;;;;;;18.00;2.38;;;10.50;99.90;;;;;;5020854;28;20132;-82
2023/03/25 09:59:43;;;;;;;16.23;2.40;;;10.60;99.90;;;;;;5048162;28;20040;-82
2023/03/25 10:02:32;;;;;;;13.90;2.50;;;10.60;99.90;;;;;;5062866;28;20120;-82
2023/03/25 10:05:17;;;;;;;10.55;1.73;;;10.50;99.90;;;;;;5044132;28;20563;-82
2023/03/25 10:08:03;;;;;;;14.77;2.25;;;10.50;99.90;;;;;;5047888;28;20045;-81
2023/03/25 10:10:47;;;;;;;19.17;3.00;;;10.50;99.90;;;;;;5027810;28;20040;-82
2023/03/25 10:13:19;;;;;;;14.50;2.50;;;10.60;99.90;;;;;;5058794;28;20037;-84
2023/03/25 10:16:00;;;;;;;14.40;2.10;;;10.70;99.90;;;;;;5048519;28;20055;-83
2023/03/25 10:19:08;;;;;;;14.23;1.98;;;10.80;99.90;;;;;;5050787;28;20049;-82
2023/03/25 10:21:52;;;;;;;13.23;2.63;;;10.80;99.90;;;;;;4970869;28;20531;-82
2023/03/25 10:24:45;;;;;;;11.43;2.38;;;10.70;99.90;;;;;;4980786;28;20046;-82
2023/03/25 10:27:19;;;;;;;12.50;2.35;;;10.70;99.90;;;;;;4952523;28;20053;-82
2023/03/25 10:30:15;;;;;;;13.70;2.95;;;10.50;99.90;;;;;;4980234;28;20047;-83
2023/03/25 10:32:50;;;;;;;17.13;2.70;;;10.50;99.90;;;;;;4954628;28;20038;-82
2023/03/25 10:35:28;;;;;;;11.18;1.73;;;10.60;99.90;;;;;;4996201;28;20093;-83
2023/03/25 10:38:05;;;;;;;12.13;2.60;;;10.60;99.90;;;;;;4993235;28;20038;-83
2023/03/25 10:40:43;;;;;;;15.40;3.08;;;10.70;99.90;;;;;;4976479;28;20074;-83
2023/03/25 10:43:29;;;;;;;13.15;3.38;;;10.60;99.90;;;;;;4962759;28;20092;-82
2023/03/25 10:46:21;;;;;;;11.55;2.25;;;10.50;99.90;;;;;;4972877;28;20062;-82
2023/03/25 10:48:59;;;;;;;11.77;2.03;;;10.50;99.90;;;;;;4974981;28;20080;-82
2023/03/25 10:51:33;;;;;;;17.55;2.97;;;10.50;99.90;;;;;;4974895;28;20701;-83
2023/03/25 10:54:00;;;;;;;15.82;2.55;;;10.50;99.90;;;;;;4993248;28;20134;-82
2023/03/25 10:56:35;;;;;;;12.85;2.53;;;10.50;99.90;;;;;;4990909;28;20054;-82
2023/03/25 10:59:13;;;;;;;19.08;3.10;;;10.50;99.90;;;;;;5037019;28;20071;-81
2023/03/25 11:01:42;;;;;;;15.20;2.80;;;10.50;99.90;;;;;;5053107;28;20507;-81
2023/03/25 11:04:18;;;;;;;16.30;2.53;;;10.50;99.90;;;;;;5056736;28;20354;-81
2023/03/25 11:06:49;;;;;;;18.75;2.33;;;10.50;99.90;;;;;;5056372;28;20048;-85
2023/03/25 11:09:31;;;;;;;15.30;2.58;;;10.60;99.90;;;;;;5053590;28;20048;-82
2023/03/25 11:12:05;;;;;;;15.57;2.40;;;10.50;99.90;;;;;;5062104;28;20056;-82
2023/03/25 11:14:40;;;;;;;17.65;2.88;;;10.60;99.90;;;;;;5050861;28;20037;-82
2023/03/25 11:17:24;;;;;;;10.65;2.60;;;10.60;99.90;;;;;;5049953;28;20044;-81
2023/03/25 11:20:05;;;;;;;16.42;2.67;;;10.70;99.90;;;;;;5050081;28;20041;-83
2023/03/25 11:22:35;;;;;;;13.85;2.72;;;10.70;99.90;;;;;;5050205;28;20484;-83
2023/03/25 11:25:25;;;;;;;16.15;3.63;;;10.70;99.90;;;;;;5052912;28;20115;-83
2023/03/25 11:28:04;;;;;;;19.20;2.78;;;10.70;99.90;;;;;;5066436;28;20068;-82
2023/03/25 11:30:33;;;;;;;15.73;2.33;;;10.80;99.90;;;;;;5049097;28;20120;-83
2023/03/25 11:33:03;;;;;;;15.65;2.90;;;10.80;99.90;;;;;;5032675;28;20471;-82
2023/03/25 11:35:37;;;;;;;16.15;2.42;;;10.80;99.90;;;;;;5048963;28;20029;-82
2023/03/25 11:38:22;;;;;;;12.60;2.22;;;10.80;99.90;;;;;;5039337;28;20148;-83
2023/03/25 11:41:00;;;;;;;8.43;2.00;;;10.90;99.90;;;;;;5049721;28;20033;-83
2023/03/25 11:43:35;;;;;;;13.60;2.03;;;10.90;99.90;;;;;;5048344;28;20044;-83
2023/03/25 11:46:11;;;;;;;13.68;2.55;;;10.90;99.90;;;;;;5052116;28;20317;-83
2023/03/25 11:48:39;;;;;;;12.98;2.35;;;11.00;99.90;;;;;;5047286;28;20515;-83
2023/03/25 11:51:11;;;;;;;15.90;2.13;;;11.00;99.90;;;;;;5065399;28;20618;-83
2023/03/25 11:53:42;;;;;;;12.05;3.00;;;11.10;99.90;;;;;;5066756;28;20052;-83
2023/03/25 11:56:21;;;;;;;16.40;3.15;;;11.10;99.90;;;;;;5051328;28;20036;-84
2023/03/25 11:58:48;;;;;;;12.15;1.85;;;11.10;99.90;;;;;;5047047;28;20645;-84
2023/03/25 12:01:35;;;;;;;11.52;2.35;;;11.10;99.90;;;;;;5059972;28;20116;-83
2023/03/25 12:04:31;;;;;;;12.88;1.92;;;11.30;99.90;;;;;;5046675;28;20038;-83
2023/03/25 12:07:08;;;;;;;11.65;1.80;;;11.10;99.90;;;;;;5035053;28;20086;-84
2023/03/25 12:09:35;;;;;;;14.50;1.98;;;11.20;99.90;;;;;;5065666;28;20037;-86
2023/03/25 12:12:40;;;;;;;11.95;1.83;;;11.40;99.90;;;;;;5052495;28;20037;-84
2023/03/25 12:15:11;;;;;;;11.48;1.80;;;11.70;99.90;;;;;;5033135;28;20789;-84
2023/03/25 12:17:51;;;;;;;11.15;1.98;;;11.80;99.90;;;;;;5044517;28;20499;-84
2023/03/25 12:20:26;;;;;;;11.77;2.05;;;11.80;99.90;;;;;;5050665;28;20064;-84
2023/03/25 12:23:13;;;;;;;11.65;1.90;;;11.70;99.90;;;;;;5044508;28;20069;-84
2023/03/25 12:25:52;;;;;;;11.68;1.60;;;11.80;99.90;;;;;;5043342;28;20506;-83
2023/03/25 12:28:36;;;;;;;8.48;1.58;;;11.80;99.90;;;;;;5055461;28;20052;-86
2023/03/25 12:31:36;;;;;;;9.88;2.20;;;11.80;99.90;;;;;;5048546;28;20051;-85
2023/03/25 12:34:20;;;;;;;11.57;2.13;;;11.80;99.90;;;;;;5049770;28;20040;-85
2023/03/25 12:37:04;;;;;;;10.20;2.45;;;11.70;99.90;;;;;;5050166;28;20505;-85
2023/03/25 12:39:52;;;;;;;10.33;2.10;;;11.70;99.90;;;;;;5047785;28;20056;-85
2023/03/25 12:42:42;;;;;;;11.60;1.60;;;11.70;99.90;;;;;;5047373;28;20059;-83
2023/03/25 12:45:33;;;;;;;8.75;1.60;;;11.90;99.90;;;;;;5048497;28;20040;-83
2023/03/25 12:48:24;;;;;;;11.13;2.10;;;12.20;99.90;;;;;;5057347;28;20036;-83
2023/03/25 12:51:03;;;;;;;10.68;1.95;;;12.30;99.90;;;;;;5047208;28;20041;-84
2023/03/25 12:53:41;;;;;;;11.43;1.77;;;12.20;99.90;;;;;;5048814;28;20040;-84
2023/03/25 12:56:50;;;;;;;7.15;1.50;;;12.30;99.90;;;;;;5045294;28;20037;-83
2023/03/25 12:59:42;;;;;;;9.70;1.35;;;12.30;99.90;;;;;;4940401;28;20043;-82
2023/03/25 13:02:16;;;;;;;10.57;1.88;;;12.30;99.90;;;;;;4920332;29;20051;-82
2023/03/25 13:05:14;;;;;;;13.10;2.95;;;12.20;99.90;;;;;;4946255;28;20196;-82
2023/03/25 13:08:16;;;;;;;11.27;1.77;;;12.20;99.90;;;;;;4927180;29;20052;-83
2023/03/25 13:10:46;;;;;;;12.13;2.53;;;12.30;99.90;;;;;;4921691;29;20148;-83
2023/03/25 13:13:24;;;;;;;7.25;2.05;;;12.30;99.90;;;;;;4914752;29;20091;-81